sensor_id;sensor_type;location;lat;lon;timestamp;pressure;altitude;pressure_sealevel;temperature;humidity
47082;BME280;33066;49.296;14.470;2023-03-13T00:00:36;96532.52;;;10.38;42.13
47082;BME280;33066;49.296;14.470;2023-03-13T00:03:01;96528.92;;;10.36;42.10
47082;BME280;33066;49.296;14.470;2023-03-13T00:05:27;96532.15;;;9.76;42.36
47082;BME280;33066;49.296;14.470;2023-03-13T00:07:52;96535.64;;;9.93;42.51
47082;BME280;33066;49.296;14.470;2023-03-13T00:10:18;96533.52;;;9.98;42.48
47082;BME280;33066;49.296;14.470;2023-03-13T00:12:43;96530.79;;;10.26;42.48
47082;BME280;33066;49.296;14.470;2023-03-13T00:15:09;96534.77;;;10.03;42.49
47082;BME280;33066;49.296;14.470;2023-03-13T00:17:34;96536.27;;;10.01;42.48
47082;BME280;33066;49.296;14.470;2023-03-13T00:19:59;96530.39;;;9.99;42.56
47082;BME280;33066;49.296;14.470;2023-03-13T00:22:24;96528.88;;;10.04;42.58
47082;BME280;33066;49.296;14.470;2023-03-13T00:24:50;96521.87;;;9.91;42.47
47082;BME280;33066;49.296;14.470;2023-03-13T00:27:15;96520.62;;;10.49;42.34
47082;BME280;33066;49.296;14.470;2023-03-13T00:29:41;96514.95;;;10.60;42.28
47082;BME280;33066;49.296;14.470;2023-03-13T00:32:05;96512.44;;;10.13;42.32
47082;BME280;33066;49.296;14.470;2023-03-13T00:34:31;96507.82;;;10.38;42.28
47082;BME280;33066;49.296;14.470;2023-03-13T00:36:56;96506.36;;;10.15;42.31
47082;BME280;33066;49.296;14.470;2023-03-13T00:39:22;96504.53;;;10.16;42.34
47082;BME280;33066;49.296;14.470;2023-03-13T00:41:47;96505.76;;;10.25;42.21
47082;BME280;33066;49.296;14.470;2023-03-13T00:44:14;96505.79;;;10.63;42.07
47082;BME280;33066;49.296;14.470;2023-03-13T00:46:39;96502.82;;;10.47;42.09
47082;BME280;33066;49.296;14.470;2023-03-13T00:49:05;96500.85;;;10.53;42.02
47082;BME280;33066;49.296;14.470;2023-03-13T00:51:30;96501.30;;;10.59;41.99
47082;BME280;33066;49.296;14.470;2023-03-13T00:53:55;96498.91;;;10.67;41.89
47082;BME280;33066;49.296;14.470;2023-03-13T00:56:20;96503.03;;;10.68;41.88
47082;BME280;33066;49.296;14.470;2023-03-13T00:58:46;96502.49;;;10.70;41.75
47082;BME280;33066;49.296;14.470;2023-03-13T01:01:12;96502.87;;;10.80;41.94
47082;BME280;33066;49.296;14.470;2023-03-13T01:03:38;96499.89;;;10.55;42.04
47082;BME280;33066;49.296;14.470;2023-03-13T01:06:04;96498.14;;;10.56;42.03
47082;BME280;33066;49.296;14.470;2023-03-13T01:08:29;96496.16;;;10.57;42.03
47082;BME280;33066;49.296;14.470;2023-03-13T01:10:58;96497.88;;;10.55;42.13
47082;BME280;33066;49.296;14.470;2023-03-13T01:13:18;96492.54;;;10.45;42.16
47082;BME280;33066;49.296;14.470;2023-03-13T01:15:43;96493.74;;;10.41;42.24
47082;BME280;33066;49.296;14.470;2023-03-13T01:18:09;96490.27;;;10.46;42.21
47082;BME280;33066;49.296;14.470;2023-03-13T01:20:35;96489.40;;;9.01;42.34
47082;BME280;33066;49.296;14.470;2023-03-13T01:22:59;96491.18;;;10.98;40.83
47082;BME280;33066;49.296;14.470;2023-03-13T01:25:26;96486.08;;;11.32;40.97
47082;BME280;33066;49.296;14.470;2023-03-13T01:27:50;96490.07;;;10.97;41.11
47082;BME280;33066;49.296;14.470;2023-03-13T01:30:15;96488.12;;;11.09;41.25
47082;BME280;33066;49.296;14.470;2023-03-13T01:32:41;96485.67;;;11.14;41.29
47082;BME280;33066;49.296;14.470;2023-03-13T01:35:06;96478.21;;;10.97;41.32
47082;BME280;33066;49.296;14.470;2023-03-13T01:37:31;96476.72;;;11.29;41.34
47082;BME280;33066;49.296;14.470;2023-03-13T01:39:56;96473.93;;;11.35;41.13
47082;BME280;33066;49.296;14.470;2023-03-13T01:42:21;96473.45;;;11.31;41.01
47082;BME280;33066;49.296;14.470;2023-03-13T01:44:49;96469.21;;;11.38;41.04
47082;BME280;33066;49.296;14.470;2023-03-13T01:47:12;96466.45;;;11.49;41.09
47082;BME280;33066;49.296;14.470;2023-03-13T01:49:38;96457.02;;;11.49;41.27
47082;BME280;33066;49.296;14.470;2023-03-13T01:52:05;96456.24;;;11.22;41.26
47082;BME280;33066;49.296;14.470;2023-03-13T01:54:33;96457.17;;;11.15;41.09
47082;BME280;33066;49.296;14.470;2023-03-13T01:56:57;96457.25;;;11.28;41.06
47082;BME280;33066;49.296;14.470;2023-03-13T01:59:24;96459.58;;;11.39;41.21
47082;BME280;33066;49.296;14.470;2023-03-13T02:01:46;96461.58;;;11.12;41.23
47082;BME280;33066;49.296;14.470;2023-03-13T02:04:10;96456.05;;;11.12;41.25
47082;BME280;33066;49.296;14.470;2023-03-13T02:06:39;96449.16;;;10.84;41.32
47082;BME280;33066;49.296;14.470;2023-03-13T02:09:03;96443.17;;;11.13;41.32
47082;BME280;33066;49.296;14.470;2023-03-13T02:11:34;96436.06;;;11.04;41.16
47082;BME280;33066;49.296;14.470;2023-03-13T02:13:52;96430.19;;;11.25;41.05
47082;BME280;33066;49.296;14.470;2023-03-13T02:16:18;96427.01;;;11.55;41.06
47082;BME280;33066;49.296;14.470;2023-03-13T02:18:43;96425.25;;;11.33;41.13
47082;BME280;33066;49.296;14.470;2023-03-13T02:21:13;96423.41;;;11.56;41.12
47082;BME280;33066;49.296;14.470;2023-03-13T02:23:37;96419.20;;;11.52;41.30
47082;BME280;33066;49.296;14.470;2023-03-13T02:25:59;96417.79;;;11.47;41.35
47082;BME280;33066;49.296;14.470;2023-03-13T02:28:28;96423.62;;;11.01;41.37
47082;BME280;33066;49.296;14.470;2023-03-13T02:30:50;96425.91;;;11.41;41.55
47082;BME280;33066;49.296;14.470;2023-03-13T02:33:15;96432.13;;;11.18;41.45
47082;BME280;33066;49.296;14.470;2023-03-13T02:35:41;96437.31;;;11.44;41.35
47082;BME280;33066;49.296;14.470;2023-03-13T02:38:08;96439.29;;;11.25;41.34
47082;BME280;33066;49.296;14.470;2023-03-13T02:40:36;96440.94;;;11.29;41.07
47082;BME280;33066;49.296;14.470;2023-03-13T02:43:01;96443.57;;;11.54;40.92
47082;BME280;33066;49.296;14.470;2023-03-13T02:45:22;96448.76;;;11.50;40.81
47082;BME280;33066;49.296;14.470;2023-03-13T02:47:47;96451.31;;;11.09;40.72
47082;BME280;33066;49.296;14.470;2023-03-13T02:50:13;96453.34;;;11.65;40.54
47082;BME280;33066;49.296;14.470;2023-03-13T02:52:42;96454.02;;;11.42;40.39
47082;BME280;33066;49.296;14.470;2023-03-13T02:55:05;96453.75;;;11.36;40.37
47082;BME280;33066;49.296;14.470;2023-03-13T02:57:28;96449.94;;;11.27;40.26
47082;BME280;33066;49.296;14.470;2023-03-13T02:59:53;96453.29;;;11.37;40.28
47082;BME280;33066;49.296;14.470;2023-03-13T03:02:18;96451.10;;;11.26;40.48
47082;BME280;33066;49.296;14.470;2023-03-13T03:04:44;96447.35;;;10.94;40.52
47082;BME280;33066;49.296;14.470;2023-03-13T03:07:09;96452.60;;;11.15;40.66
47082;BME280;33066;49.296;14.470;2023-03-13T03:09:35;96449.42;;;11.09;40.71
47082;BME280;33066;49.296;14.470;2023-03-13T03:12:00;96453.97;;;10.96;40.95
47082;BME280;33066;49.296;14.470;2023-03-13T03:14:25;96456.68;;;11.10;41.02
47082;BME280;33066;49.296;14.470;2023-03-13T03:16:51;96456.11;;;10.85;41.04
47082;BME280;33066;49.296;14.470;2023-03-13T03:19:16;96449.56;;;10.86;41.12
47082;BME280;33066;49.296;14.470;2023-03-13T03:21:41;96447.43;;;10.81;40.98
47082;BME280;33066;49.296;14.470;2023-03-13T03:24:07;96449.59;;;10.77;41.10
47082;BME280;33066;49.296;14.470;2023-03-13T03:26:33;96445.43;;;10.70;40.93
47082;BME280;33066;49.296;14.470;2023-03-13T03:28:57;96448.00;;;10.63;41.10
47082;BME280;33066;49.296;14.470;2023-03-13T03:31:23;96447.28;;;10.84;41.10
47082;BME280;33066;49.296;14.470;2023-03-13T03:33:48;96449.10;;;10.60;41.15
47082;BME280;33066;49.296;14.470;2023-03-13T03:36:14;96452.57;;;10.71;41.13
47082;BME280;33066;49.296;14.470;2023-03-13T03:38:39;96456.00;;;10.81;41.03
47082;BME280;33066;49.296;14.470;2023-03-13T03:41:04;96458.64;;;10.92;40.84
47082;BME280;33066;49.296;14.470;2023-03-13T03:43:29;96457.34;;;11.25;40.50
47082;BME280;33066;49.296;14.470;2023-03-13T03:45:54;96456.64;;;10.90;40.24
47082;BME280;33066;49.296;14.470;2023-03-13T03:48:20;96457.90;;;11.10;40.30
47082;BME280;33066;49.296;14.470;2023-03-13T03:50:45;96456.89;;;10.87;40.30
47082;BME280;33066;49.296;14.470;2023-03-13T03:53:10;96456.76;;;10.84;40.49
47082;BME280;33066;49.296;14.470;2023-03-13T03:55:35;96457.06;;;11.05;40.69
47082;BME280;33066;49.296;14.470;2023-03-13T03:58:01;96456.61;;;11.00;40.64
47082;BME280;33066;49.296;14.470;2023-03-13T04:00:27;96461.23;;;10.64;40.77
47082;BME280;33066;49.296;14.470;2023-03-13T04:02:52;96465.19;;;10.65;40.78
47082;BME280;33066;49.296;14.470;2023-03-13T04:05:17;96462.27;;;10.64;40.70
47082;BME280;33066;49.296;14.470;2023-03-13T04:07:42;96460.24;;;10.67;40.64
47082;BME280;33066;49.296;14.470;2023-03-13T04:13:00;96454.36;;;10.97;40.31
47082;BME280;33066;49.296;14.470;2023-03-13T04:15:25;96456.31;;;10.71;40.69
47082;BME280;33066;49.296;14.470;2023-03-13T04:17:52;96453.22;;;10.45;41.06
47082;BME280;33066;49.296;14.470;2023-03-13T04:20:17;96452.66;;;10.20;41.46
47082;BME280;33066;49.296;14.470;2023-03-13T04:22:42;96452.85;;;10.37;41.66
47082;BME280;33066;49.296;14.470;2023-03-13T04:25:08;96453.59;;;10.03;41.75
47082;BME280;33066;49.296;14.470;2023-03-13T04:27:33;96447.24;;;10.17;42.06
47082;BME280;33066;49.296;14.470;2023-03-13T04:29:57;96447.16;;;9.88;42.13
47082;BME280;33066;49.296;14.470;2023-03-13T04:32:23;96445.57;;;9.94;42.05
47082;BME280;33066;49.296;14.470;2023-03-13T04:34:48;96444.65;;;9.92;42.12
47082;BME280;33066;49.296;14.470;2023-03-13T04:37:14;96445.84;;;10.00;42.06
47082;BME280;33066;49.296;14.470;2023-03-13T04:39:39;96444.46;;;10.32;42.00
47082;BME280;33066;49.296;14.470;2023-03-13T04:42:06;96449.86;;;10.62;41.97
47082;BME280;33066;49.296;14.470;2023-03-13T04:44:30;96448.76;;;10.15;41.95
47082;BME280;33066;49.296;14.470;2023-03-13T04:46:56;96445.55;;;10.39;41.98
47082;BME280;33066;49.296;14.470;2023-03-13T04:49:21;96444.23;;;10.32;42.10
47082;BME280;33066;49.296;14.470;2023-03-13T04:51:46;96442.55;;;10.14;42.28
47082;BME280;33066;49.296;14.470;2023-03-13T04:54:12;96432.12;;;10.29;42.46
47082;BME280;33066;49.296;14.470;2023-03-13T04:56:38;96426.09;;;10.19;42.67
47082;BME280;33066;49.296;14.470;2023-03-13T04:59:03;96422.47;;;10.18;42.74
47082;BME280;33066;49.296;14.470;2023-03-13T05:01:28;96422.69;;;9.94;42.78
47082;BME280;33066;49.296;14.470;2023-03-13T05:03:55;96411.36;;;9.77;43.15
47082;BME280;33066;49.296;14.470;2023-03-13T05:06:19;96405.99;;;9.76;43.15
47082;BME280;33066;49.296;14.470;2023-03-13T05:08:46;96404.32;;;10.13;43.06
47082;BME280;33066;49.296;14.470;2023-03-13T05:11:10;96400.53;;;10.18;42.93
47082;BME280;33066;49.296;14.470;2023-03-13T05:13:35;96401.52;;;9.88;43.14
47082;BME280;33066;49.296;14.470;2023-03-13T05:16:00;96402.73;;;9.81;43.27
47082;BME280;33066;49.296;14.470;2023-03-13T05:18:26;96399.81;;;9.84;43.32
47082;BME280;33066;49.296;14.470;2023-03-13T05:20:51;96400.10;;;9.95;43.56
47082;BME280;33066;49.296;14.470;2023-03-13T05:23:16;96399.46;;;9.69;43.64
47082;BME280;33066;49.296;14.470;2023-03-13T05:25:42;96399.43;;;9.76;44.03
47082;BME280;33066;49.296;14.470;2023-03-13T05:28:07;96396.54;;;9.76;44.03
47082;BME280;33066;49.296;14.470;2023-03-13T05:30:33;96391.77;;;9.68;44.18
47082;BME280;33066;49.296;14.470;2023-03-13T05:32:58;96394.15;;;9.50;44.14
47082;BME280;33066;49.296;14.470;2023-03-13T05:35:23;96398.28;;;9.76;44.19
47082;BME280;33066;49.296;14.470;2023-03-13T05:37:48;96395.24;;;9.69;44.02
47082;BME280;33066;49.296;14.470;2023-03-13T05:40:14;96397.12;;;10.03;43.86
47082;BME280;33066;49.296;14.470;2023-03-13T05:42:39;96397.58;;;10.07;43.81
47082;BME280;33066;49.296;14.470;2023-03-13T05:45:06;96389.54;;;10.20;43.63
47082;BME280;33066;49.296;14.470;2023-03-13T05:47:30;96394.72;;;10.11;43.42
47082;BME280;33066;49.296;14.470;2023-03-13T05:49:55;96393.17;;;10.13;43.45
47082;BME280;33066;49.296;14.470;2023-03-13T05:52:22;96389.09;;;10.46;43.30
47082;BME280;33066;49.296;14.470;2023-03-13T05:54:46;96376.64;;;10.26;43.35
47082;BME280;33066;49.296;14.470;2023-03-13T05:57:12;96374.24;;;10.40;43.16
47082;BME280;33066;49.296;14.470;2023-03-13T05:59:37;96369.51;;;10.76;43.02
47082;BME280;33066;49.296;14.470;2023-03-13T06:02:02;96369.19;;;10.33;42.93
47082;BME280;33066;49.296;14.470;2023-03-13T06:04:28;96369.17;;;10.46;42.82
47082;BME280;33066;49.296;14.470;2023-03-13T06:06:53;96368.30;;;10.54;42.72
47082;BME280;33066;49.296;14.470;2023-03-13T06:09:19;96369.51;;;10.95;42.57
47082;BME280;33066;49.296;14.470;2023-03-13T06:11:44;96360.24;;;10.82;42.40
47082;BME280;33066;49.296;14.470;2023-03-13T06:14:09;96355.95;;;10.86;42.18
47082;BME280;33066;49.296;14.470;2023-03-13T06:16:36;96351.95;;;11.33;41.91
47082;BME280;33066;49.296;14.470;2023-03-13T06:19:00;96347.29;;;11.09;41.59
47082;BME280;33066;49.296;14.470;2023-03-13T06:21:25;96350.32;;;11.45;41.34
47082;BME280;33066;49.296;14.470;2023-03-13T06:23:50;96348.59;;;11.57;41.17
47082;BME280;33066;49.296;14.470;2023-03-13T06:26:16;96346.05;;;11.71;41.04
47082;BME280;33066;49.296;14.470;2023-03-13T06:28:41;96345.91;;;11.79;40.85
47082;BME280;33066;49.296;14.470;2023-03-13T06:31:07;96350.92;;;11.61;40.80
47082;BME280;33066;49.296;14.470;2023-03-13T06:33:32;96349.92;;;11.80;40.76
47082;BME280;33066;49.296;14.470;2023-03-13T06:35:59;96351.51;;;11.76;40.58
47082;BME280;33066;49.296;14.470;2023-03-13T06:38:23;96352.03;;;11.94;40.63
47082;BME280;33066;49.296;14.470;2023-03-13T06:40:48;96351.34;;;11.74;40.80
47082;BME280;33066;49.296;14.470;2023-03-13T06:43:13;96347.83;;;11.47;40.82
47082;BME280;33066;49.296;14.470;2023-03-13T06:45:40;96354.93;;;11.56;41.10
47082;BME280;33066;49.296;14.470;2023-03-13T06:48:04;96347.74;;;11.55;41.16
47082;BME280;33066;49.296;14.470;2023-03-13T06:50:31;96338.09;;;11.68;41.21
47082;BME280;33066;49.296;14.470;2023-03-13T06:52:55;96342.65;;;11.57;41.05
47082;BME280;33066;49.296;14.470;2023-03-13T06:55:20;96344.54;;;11.50;41.05
47082;BME280;33066;49.296;14.470;2023-03-13T06:57:49;96345.46;;;11.64;40.97
47082;BME280;33066;49.296;14.470;2023-03-13T07:00:11;96348.21;;;11.67;40.95
47082;BME280;33066;49.296;14.470;2023-03-13T07:02:36;96352.18;;;11.93;40.98
47082;BME280;33066;49.296;14.470;2023-03-13T07:05:02;96347.00;;;11.85;40.92
47082;BME280;33066;49.296;14.470;2023-03-13T07:07:27;96346.73;;;11.82;40.99
47082;BME280;33066;49.296;14.470;2023-03-13T07:09:52;96342.62;;;11.62;40.99
47082;BME280;33066;49.296;14.470;2023-03-13T07:12:18;96343.65;;;11.71;41.08
47082;BME280;33066;49.296;14.470;2023-03-13T07:14:43;96339.46;;;11.86;41.04
47082;BME280;33066;49.296;14.470;2023-03-13T07:17:08;96338.65;;;11.95;41.08
47082;BME280;33066;49.296;14.470;2023-03-13T07:19:33;96338.79;;;12.06;40.97
47082;BME280;33066;49.296;14.470;2023-03-13T07:21:58;96325.10;;;11.91;40.91
47082;BME280;33066;49.296;14.470;2023-03-13T07:24:24;96324.84;;;12.11;40.85
47082;BME280;33066;49.296;14.470;2023-03-13T07:26:49;96320.55;;;12.32;41.12
47082;BME280;33066;49.296;14.470;2023-03-13T07:29:14;96323.48;;;12.46;41.03
47082;BME280;33066;49.296;14.470;2023-03-13T07:31:41;96328.89;;;12.43;40.80
47082;BME280;33066;49.296;14.470;2023-03-13T07:34:05;96320.08;;;12.39;40.65
47082;BME280;33066;49.296;14.470;2023-03-13T07:36:31;96309.68;;;12.60;40.50
47082;BME280;33066;49.296;14.470;2023-03-13T07:38:56;96306.78;;;12.61;40.39
47082;BME280;33066;49.296;14.470;2023-03-13T07:41:21;96307.73;;;12.66;40.32
47082;BME280;33066;49.296;14.470;2023-03-13T07:43:47;96309.31;;;12.79;40.33
47082;BME280;33066;49.296;14.470;2023-03-13T07:46:13;96306.94;;;12.35;39.84
47082;BME280;33066;49.296;14.470;2023-03-13T07:48:39;96317.66;;;12.89;40.11
47082;BME280;33066;49.296;14.470;2023-03-13T07:51:04;96311.07;;;12.86;39.89
47082;BME280;33066;49.296;14.470;2023-03-13T07:53:29;96298.34;;;12.34;39.82
47082;BME280;33066;49.296;14.470;2023-03-13T07:55:55;96287.17;;;12.71;39.47
47082;BME280;33066;49.296;14.470;2023-03-13T07:58:19;96305.14;;;12.65;39.02
47082;BME280;33066;49.296;14.470;2023-03-13T08:00:44;96295.37;;;12.90;39.44
47082;BME280;33066;49.296;14.470;2023-03-13T08:03:09;96292.94;;;12.27;39.44
47082;BME280;33066;49.296;14.470;2023-03-13T08:05:35;96284.84;;;12.53;39.47
47082;BME280;33066;49.296;14.470;2023-03-13T08:08:00;96285.10;;;12.50;39.59
47082;BME280;33066;49.296;14.470;2023-03-13T08:10:25;96284.34;;;12.59;39.65
47082;BME280;33066;49.296;14.470;2023-03-13T08:12:51;96278.55;;;12.68;39.42
47082;BME280;33066;49.296;14.470;2023-03-13T08:15:16;96273.54;;;12.70;39.39
47082;BME280;33066;49.296;14.470;2023-03-13T08:17:41;96272.16;;;12.94;39.25
47082;BME280;33066;49.296;14.470;2023-03-13T08:20:08;96266.62;;;13.04;39.29
47082;BME280;33066;49.296;14.470;2023-03-13T08:22:32;96263.28;;;13.24;39.25
47082;BME280;33066;49.296;14.470;2023-03-13T08:24:58;96257.20;;;13.14;38.98
47082;BME280;33066;49.296;14.470;2023-03-13T08:27:25;96258.43;;;13.43;39.10
47082;BME280;33066;49.296;14.470;2023-03-13T08:29:49;96251.30;;;13.53;38.97
47082;BME280;33066;49.296;14.470;2023-03-13T08:32:14;96246.95;;;13.66;38.60
47082;BME280;33066;49.296;14.470;2023-03-13T08:34:39;96239.48;;;13.39;38.26
47082;BME280;33066;49.296;14.470;2023-03-13T08:37:04;96235.67;;;13.51;38.13
47082;BME280;33066;49.296;14.470;2023-03-13T08:39:30;96227.86;;;13.47;38.06
47082;BME280;33066;49.296;14.470;2023-03-13T08:41:55;96225.89;;;13.48;37.98
47082;BME280;33066;49.296;14.470;2023-03-13T08:44:20;96216.54;;;13.24;37.76
47082;BME280;33066;49.296;14.470;2023-03-13T08:46:46;96212.36;;;13.18;37.92
47082;BME280;33066;49.296;14.470;2023-03-13T08:49:11;96208.61;;;13.36;38.08
47082;BME280;33066;49.296;14.470;2023-03-13T08:51:36;96203.46;;;13.76;37.96
47082;BME280;33066;49.296;14.470;2023-03-13T08:54:02;96202.90;;;13.54;37.99
47082;BME280;33066;49.296;14.470;2023-03-13T08:56:29;96205.88;;;13.56;37.99
47082;BME280;33066;49.296;14.470;2023-03-13T08:58:53;96206.25;;;13.51;37.57
47082;BME280;33066;49.296;14.470;2023-03-13T09:01:18;96208.06;;;13.25;37.90
47082;BME280;33066;49.296;14.470;2023-03-13T09:03:43;96202.76;;;13.38;37.47
47082;BME280;33066;49.296;14.470;2023-03-13T09:06:10;96204.02;;;13.21;37.66
47082;BME280;33066;49.296;14.470;2023-03-13T09:08:36;96202.18;;;13.29;37.70
47082;BME280;33066;49.296;14.470;2023-03-13T09:11:01;96204.40;;;13.46;37.70
47082;BME280;33066;49.296;14.470;2023-03-13T09:13:26;96209.02;;;13.45;37.51
47082;BME280;33066;49.296;14.470;2023-03-13T09:15:54;96207.14;;;13.45;37.30
47082;BME280;33066;49.296;14.470;2023-03-13T09:18:16;96198.64;;;13.68;37.24
47082;BME280;33066;49.296;14.470;2023-03-13T09:20:42;96186.92;;;13.83;37.12
47082;BME280;33066;49.296;14.470;2023-03-13T09:23:06;96185.62;;;13.81;36.87
47082;BME280;33066;49.296;14.470;2023-03-13T09:25:32;96190.11;;;13.75;36.47
47082;BME280;33066;49.296;14.470;2023-03-13T09:27:57;96193.21;;;13.87;36.73
47082;BME280;33066;49.296;14.470;2023-03-13T09:30:22;96193.56;;;13.76;36.74
47082;BME280;33066;49.296;14.470;2023-03-13T09:32:48;96183.85;;;13.98;36.80
47082;BME280;33066;49.296;14.470;2023-03-13T09:35:13;96185.61;;;13.81;36.86
47082;BME280;33066;49.296;14.470;2023-03-13T09:37:38;96183.72;;;13.74;36.94
47082;BME280;33066;49.296;14.470;2023-03-13T09:40:05;96176.91;;;13.87;37.07
47082;BME280;33066;49.296;14.470;2023-03-13T09:42:36;96180.70;;;13.88;37.12
47082;BME280;33066;49.296;14.470;2023-03-13T09:45:01;96178.84;;;13.96;37.20
47082;BME280;33066;49.296;14.470;2023-03-13T09:47:24;96180.43;;;14.29;37.06
47082;BME280;33066;49.296;14.470;2023-03-13T09:49:50;96183.43;;;14.16;36.98
47082;BME280;33066;49.296;14.470;2023-03-13T09:52:15;96187.10;;;13.91;36.90
47082;BME280;33066;49.296;14.470;2023-03-13T09:54:38;96182.94;;;13.84;36.97
47082;BME280;33066;49.296;14.470;2023-03-13T09:57:09;96180.28;;;14.07;36.71
47082;BME280;33066;49.296;14.470;2023-03-13T09:59:34;96172.99;;;14.01;37.05
47082;BME280;33066;49.296;14.470;2023-03-13T10:01:53;96172.09;;;13.91;37.04
47082;BME280;33066;49.296;14.470;2023-03-13T10:04:26;96166.03;;;14.12;36.98
47082;BME280;33066;49.296;14.470;2023-03-13T10:06:43;96160.22;;;13.79;37.16
47082;BME280;33066;49.296;14.470;2023-03-13T10:09:16;96153.27;;;13.88;37.02
47082;BME280;33066;49.296;14.470;2023-03-13T10:11:39;96138.47;;;14.27;36.65
47082;BME280;33066;49.296;14.470;2023-03-13T10:14:04;96128.12;;;14.39;36.42
47082;BME280;33066;49.296;14.470;2023-03-13T10:16:29;96136.00;;;14.40;35.66
47082;BME280;33066;49.296;14.470;2023-03-13T10:18:54;96133.46;;;14.66;35.78
47082;BME280;33066;49.296;14.470;2023-03-13T10:21:17;96121.70;;;15.00;35.47
47082;BME280;33066;49.296;14.470;2023-03-13T10:23:46;96101.32;;;14.91;35.17
47082;BME280;33066;49.296;14.470;2023-03-13T10:26:10;96111.89;;;15.19;34.87
47082;BME280;33066;49.296;14.470;2023-03-13T10:28:31;96114.02;;;15.38;34.75
47082;BME280;33066;49.296;14.470;2023-03-13T10:31:03;96113.91;;;15.43;34.69
47082;BME280;33066;49.296;14.470;2023-03-13T10:33:24;96110.15;;;15.43;34.81
47082;BME280;33066;49.296;14.470;2023-03-13T10:36:02;96104.72;;;15.57;34.86
47082;BME280;33066;49.296;14.470;2023-03-13T10:38:16;96099.85;;;15.73;34.84
47082;BME280;33066;49.296;14.470;2023-03-13T10:40:38;96097.06;;;15.51;34.90
47082;BME280;33066;49.296;14.470;2023-03-13T10:43:05;96105.31;;;15.42;35.16
47082;BME280;33066;49.296;14.470;2023-03-13T10:45:32;96094.53;;;15.60;35.07
47082;BME280;33066;49.296;14.470;2023-03-13T10:47:54;96098.64;;;15.88;34.66
47082;BME280;33066;49.296;14.470;2023-03-13T10:50:21;96100.06;;;15.92;34.66
47082;BME280;33066;49.296;14.470;2023-03-13T10:52:45;96105.69;;;16.46;34.37
47082;BME280;33066;49.296;14.470;2023-03-13T10:55:11;96095.41;;;16.76;34.04
47082;BME280;33066;49.296;14.470;2023-03-13T10:57:35;96102.76;;;16.69;33.67
47082;BME280;33066;49.296;14.470;2023-03-13T11:00:21;96093.59;;;16.84;33.42
47082;BME280;33066;49.296;14.470;2023-03-13T11:02:30;96091.26;;;16.50;33.81
47082;BME280;33066;49.296;14.470;2023-03-13T11:04:50;96089.06;;;16.65;33.93
47082;BME280;33066;49.296;14.470;2023-03-13T11:07:21;96087.48;;;16.96;33.58
47082;BME280;33066;49.296;14.470;2023-03-13T11:09:41;96087.89;;;17.06;33.18
47082;BME280;33066;49.296;14.470;2023-03-13T11:12:10;96082.52;;;16.72;33.79
47082;BME280;33066;49.296;14.470;2023-03-13T11:14:32;96089.43;;;16.88;33.73
47082;BME280;33066;49.296;14.470;2023-03-13T11:17:03;96076.22;;;16.98;33.32
47082;BME280;33066;49.296;14.470;2023-03-13T11:19:38;96061.65;;;17.28;32.99
47082;BME280;33066;49.296;14.470;2023-03-13T11:21:55;96068.21;;;17.46;32.38
47082;BME280;33066;49.296;14.470;2023-03-13T11:24:16;96057.73;;;17.36;32.45
47082;BME280;33066;49.296;14.470;2023-03-13T11:26:43;96065.48;;;17.21;32.65
47082;BME280;33066;49.296;14.470;2023-03-13T11:29:09;96050.89;;;17.07;32.99
47082;BME280;33066;49.296;14.470;2023-03-13T11:31:33;96049.59;;;17.30;32.78
47082;BME280;33066;49.296;14.470;2023-03-13T11:34:01;96052.91;;;17.63;32.65
47082;BME280;33066;49.296;14.470;2023-03-13T11:36:22;96060.42;;;17.55;32.80
47082;BME280;33066;49.296;14.470;2023-03-13T11:38:47;96055.73;;;17.32;33.31
47082;BME280;33066;49.296;14.470;2023-03-13T11:41:22;96051.01;;;17.28;33.64
47082;BME280;33066;49.296;14.470;2023-03-13T11:43:46;96056.35;;;17.32;33.89
47082;BME280;33066;49.296;14.470;2023-03-13T11:46:12;96051.01;;;16.94;34.22
47082;BME280;33066;49.296;14.470;2023-03-13T11:48:34;96050.30;;;16.55;34.55
47082;BME280;33066;49.296;14.470;2023-03-13T11:50:53;96030.62;;;16.93;34.47
47082;BME280;33066;49.296;14.470;2023-03-13T11:53:28;96032.42;;;16.99;34.25
47082;BME280;33066;49.296;14.470;2023-03-13T11:55:49;96034.53;;;17.59;33.90
47082;BME280;33066;49.296;14.470;2023-03-13T11:58:21;96038.06;;;17.40;33.64
47082;BME280;33066;49.296;14.470;2023-03-13T12:00:33;96038.64;;;17.72;33.41
47082;BME280;33066;49.296;14.470;2023-03-13T12:02:58;96046.24;;;17.64;33.43
47082;BME280;33066;49.296;14.470;2023-03-13T12:05:22;96040.57;;;17.82;33.45
47082;BME280;33066;49.296;14.470;2023-03-13T12:07:52;96034.02;;;17.95;33.52
47082;BME280;33066;49.296;14.470;2023-03-13T12:10:14;96029.31;;;18.00;33.24
47082;BME280;33066;49.296;14.470;2023-03-13T12:12:40;96020.81;;;18.35;33.19
47082;BME280;33066;49.296;14.470;2023-03-13T12:15:09;96022.23;;;18.95;32.65
47082;BME280;33066;49.296;14.470;2023-03-13T12:17:33;96007.49;;;19.62;32.44
47082;BME280;33066;49.296;14.470;2023-03-13T12:19:57;96005.28;;;19.88;32.12
47082;BME280;33066;49.296;14.470;2023-03-13T12:22:22;95993.50;;;19.59;31.21
47082;BME280;33066;49.296;14.470;2023-03-13T12:24:49;95986.14;;;19.86;31.12
47082;BME280;33066;49.296;14.470;2023-03-13T12:27:12;95973.33;;;20.14;30.89
47082;BME280;33066;49.296;14.470;2023-03-13T12:29:40;95969.09;;;20.37;31.05
47082;BME280;33066;49.296;14.470;2023-03-13T12:32:02;95962.66;;;20.11;30.82
47082;BME280;33066;49.296;14.470;2023-03-13T12:34:27;95960.61;;;20.06;31.28
47082;BME280;33066;49.296;14.470;2023-03-13T12:36:52;95960.12;;;20.40;31.31
47082;BME280;33066;49.296;14.470;2023-03-13T12:39:21;95957.34;;;20.25;31.15
47082;BME280;33066;49.296;14.470;2023-03-13T12:41:42;95956.04;;;20.52;31.01